Lagoa Nova, Brazil
Current Conditions -  °F | °C
As of 11:00 PM on Monday 20 Oct 2014 (Local Time) from SBNT Reporting Station
Broken Clouds Broken Clouds  
Wind Chill: 77°   Ceiling: 1800
Heat Index: 79°   Visibility: 6mi
Dew Point: 68°   Wind: 10mph
Humidity: 74%   Direction: 110°ESE
Pressure: 29.88"   Gusts: NA
Location:  6.12°S, 35.48°W
Report Text: SBNT 210200Z 11009KT 9999 BKN018 25/20 Q1012
Loading
Personal Weather Stations






























Interactive Weather Map
Tropical Storm Tracking
New forecast layout! Learn more

10-Day Weather Forecast

Advertisements
Track Severe Weather on mobile